Time;durP1;ratioP1;P1;durP2;ratioP2;P2;SDS_P1;SDS_P2;PMS_P1;PMS_P2;Temp;Humidity;BMP_temperature;BMP_pressure;BME280_temperature;BME280_humidity;BME280_pressure;Samples;Min_cycle;Max_cycle;Signal;HPM_P1;HPM_P2
2022/09/25 00:01:03;;;;;;;61.40;57.50;;;14.30;99.90;;;;;;5091266;28;20412;-69
2022/09/25 00:03:30;;;;;;;60.35;56.65;;;14.20;99.90;;;;;;5090734;28;20753;-68
2022/09/25 00:06:23;;;;;;;63.80;59.78;;;14.30;99.90;;;;;;5092055;28;20860;-68
2022/09/25 00:08:49;;;;;;;64.07;60.07;;;14.30;99.90;;;;;;5068336;28;20403;-69
2022/09/25 00:11:26;;;;;;;62.17;58.38;;;14.30;99.90;;;;;;5051018;28;20396;-69
2022/09/25 00:13:51;;;;;;;63.43;59.37;;;14.30;99.90;;;;;;5052033;28;20427;-69
2022/09/25 00:16:20;;;;;;;60.00;56.20;;;14.30;99.90;;;;;;5070559;28;20953;-69
2022/09/25 00:21:33;;;;;;;66.47;62.13;;;14.30;99.90;;;;;;5070418;28;20434;-69
2022/09/25 00:24:04;;;;;;;63.58;59.40;;;14.30;99.90;;;;;;5052240;28;20475;-69
2022/09/25 00:26:33;;;;;;;67.53;63.03;;;14.30;99.90;;;;;;5071319;28;20753;-69
2022/09/25 00:29:01;;;;;;;68.88;64.13;;;14.30;99.90;;;;;;5051091;28;20384;-69
2022/09/25 00:31:28;;;;;;;63.95;59.75;;;14.30;99.90;;;;;;5051712;28;20391;-69
2022/09/25 00:33:57;;;;;;;63.53;59.20;;;14.30;99.90;;;;;;5051562;28;20469;-69
2022/09/25 00:36:23;;;;;;;63.90;59.58;;;14.30;99.90;;;;;;5050560;28;20498;-69
2022/09/25 00:38:49;;;;;;;64.28;60.00;;;14.30;99.90;;;;;;5051240;28;20691;-69
2022/09/25 00:41:17;;;;;;;63.78;59.50;;;14.30;99.90;;;;;;5068622;28;20391;-69
2022/09/25 00:43:47;;;;;;;65.07;60.60;;;14.20;99.90;;;;;;5050990;28;20779;-69
2022/09/25 00:46:21;;;;;;;64.28;60.03;;;14.20;99.90;;;;;;5049733;28;20405;-68
2022/09/25 00:49:14;;;;;;;65.43;60.90;;;14.20;99.90;;;;;;5050622;28;20445;-68
2022/09/25 00:51:49;;;;;;;64.07;59.65;;;14.20;99.90;;;;;;5064673;28;20440;-68
2022/09/25 00:54:26;;;;;;;63.42;59.13;;;14.30;99.90;;;;;;5051657;28;20848;-69
2022/09/25 00:56:56;;;;;;;65.00;60.22;;;14.30;99.90;;;;;;5052489;28;20783;-69
2022/09/25 00:59:43;;;;;;;63.80;59.20;;;14.30;99.90;;;;;;5070392;28;20427;-70
2022/09/25 01:02:15;;;;;;;65.80;61.15;;;14.30;99.90;;;;;;5053235;28;20438;-68
2022/09/25 01:04:45;;;;;;;61.38;56.78;;;14.30;99.90;;;;;;5069146;28;20395;-68
2022/09/25 01:07:11;;;;;;;58.87;54.50;;;14.30;99.90;;;;;;5079823;28;20900;-68
2022/09/25 01:09:37;;;;;;;62.92;58.20;;;14.20;99.90;;;;;;5092537;28;20409;-67
2022/09/25 01:12:03;;;;;;;64.80;60.15;;;14.20;99.90;;;;;;5092046;28;20382;-68
2022/09/25 01:14:28;;;;;;;63.42;59.00;;;14.20;99.90;;;;;;5091399;28;20393;-67
2022/09/25 01:17:29;;;;;;;61.03;56.60;;;14.20;99.90;;;;;;5090547;28;20394;-67
2022/09/25 01:20:07;;;;;;;61.07;56.77;;;14.20;99.90;;;;;;5065199;28;20428;-68
2022/09/25 01:22:59;;;;;;;62.45;58.05;;;14.20;99.90;;;;;;5091624;28;20382;-68
2022/09/25 01:25:24;;;;;;;63.63;59.10;;;14.20;99.90;;;;;;5089515;28;20465;-68
2022/09/25 01:28:20;;;;;;;64.22;59.83;;;14.20;99.90;;;;;;5090448;28;20748;-69
2022/09/25 01:30:51;;;;;;;64.13;59.53;;;14.30;99.90;;;;;;5090067;28;20805;-68
2022/09/25 01:33:23;;;;;;;59.78;55.38;;;14.20;99.90;;;;;;5092489;28;20382;-67
2022/09/25 01:36:12;;;;;;;61.45;56.95;;;14.20;99.90;;;;;;5093222;28;20382;-68
2022/09/25 01:38:44;;;;;;;66.20;61.22;;;14.20;99.90;;;;;;5091124;28;20396;-67
2022/09/25 01:41:21;;;;;;;62.55;57.97;;;14.20;99.90;;;;;;5090499;28;20410;-67
2022/09/25 01:43:54;;;;;;;55.28;51.22;;;14.20;99.90;;;;;;5090211;28;20770;-68
2022/09/25 01:46:23;;;;;;;56.13;51.90;;;14.20;99.90;;;;;;5089459;28;20390;-68
2022/09/25 01:48:56;;;;;;;56.17;51.88;;;14.20;99.90;;;;;;5089848;28;20378;-68
2022/09/25 01:51:44;;;;;;;58.75;54.35;;;14.20;99.90;;;;;;5090085;28;20407;-67
2022/09/25 01:54:12;;;;;;;55.88;51.28;;;14.20;99.90;;;;;;5089481;28;20385;-68
2022/09/25 01:56:59;;;;;;;60.97;56.50;;;14.20;99.90;;;;;;5089864;28;20421;-68
2022/09/25 01:59:36;;;;;;;57.70;53.10;;;14.10;99.90;;;;;;5089567;28;20481;-68
2022/09/25 02:02:04;;;;;;;63.38;58.40;;;14.10;99.90;;;;;;5089410;28;20420;-68
2022/09/25 02:04:38;;;;;;;59.90;55.28;;;14.10;99.90;;;;;;5088784;28;20412;-69
2022/09/25 02:07:09;;;;;;;58.08;53.60;;;14.10;99.90;;;;;;5089090;28;20410;-69
2022/09/25 02:09:50;;;;;;;56.20;51.87;;;14.10;99.90;;;;;;5090001;28;20454;-68
2022/09/25 02:12:39;;;;;;;57.20;52.97;;;14.10;99.90;;;;;;5089199;28;20392;-69
2022/09/25 02:15:17;;;;;;;55.67;51.42;;;14.10;99.90;;;;;;5088050;28;20386;-69
2022/09/25 02:20:59;;;;;;;53.75;49.85;;;14.10;99.90;;;;;;5088094;28;20409;-68
2022/09/25 02:23:52;;;;;;;55.78;51.58;;;14.10;99.90;;;;;;5087006;28;20706;-68
2022/09/25 02:26:26;;;;;;;52.15;48.35;;;14.20;99.90;;;;;;5079114;28;20413;-68
2022/09/25 02:28:53;;;;;;;56.05;52.05;;;14.10;99.90;;;;;;5086632;28;20415;-68
2022/09/25 02:31:34;;;;;;;56.80;52.70;;;14.10;99.90;;;;;;5089632;28;20393;-69
2022/09/25 02:34:00;;;;;;;56.45;52.42;;;14.20;99.90;;;;;;5094611;28;20869;-69
2022/09/25 02:36:26;;;;;;;58.42;54.22;;;14.20;99.90;;;;;;5093686;28;20441;-68
2022/09/25 02:38:54;;;;;;;57.93;53.83;;;14.20;99.90;;;;;;5093701;28;20762;-68
2022/09/25 02:41:25;;;;;;;55.17;51.23;;;14.20;99.90;;;;;;5093615;28;20415;-67
2022/09/25 02:44:11;;;;;;;55.05;50.95;;;14.20;99.90;;;;;;5093764;28;20433;-68
2022/09/25 02:47:02;;;;;;;60.95;56.55;;;14.10;99.90;;;;;;5093830;28;20386;-68
2022/09/25 02:50:01;;;;;;;55.63;51.65;;;14.10;99.90;;;;;;5094399;28;21003;-68
2022/09/25 02:52:43;;;;;;;56.90;52.88;;;14.20;99.90;;;;;;5092679;28;20462;-67
2022/09/25 02:55:22;;;;;;;59.87;55.57;;;14.10;99.90;;;;;;5096716;28;20712;-68
2022/09/25 02:57:54;;;;;;;57.17;53.28;;;14.20;99.90;;;;;;5095394;28;20750;-68
2022/09/25 03:00:22;;;;;;;52.70;49.00;;;14.20;99.90;;;;;;5094400;28;20382;-67
2022/09/25 03:02:52;;;;;;;54.10;50.37;;;14.20;99.90;;;;;;5095101;28;20435;-67
2022/09/25 03:05:19;;;;;;;53.33;49.67;;;14.20;99.90;;;;;;5094515;28;20378;-68
2022/09/25 03:10:32;;;;;;;52.47;48.77;;;14.20;99.90;;;;;;5094713;28;20553;-67
2022/09/25 03:13:25;;;;;;;51.00;47.40;;;14.20;99.90;;;;;;5094885;28;20762;-68
2022/09/25 03:15:57;;;;;;;55.20;51.25;;;14.10;99.90;;;;;;5093764;28;20774;-67
2022/09/25 03:18:24;;;;;;;56.53;52.63;;;14.10;99.90;;;;;;5093547;28;20547;-68
2022/09/25 03:20:50;;;;;;;53.63;49.95;;;14.10;99.90;;;;;;5093579;28;20378;-68
2022/09/25 03:23:16;;;;;;;54.40;50.63;;;14.20;99.90;;;;;;5094085;28;20553;-68
2022/09/25 03:25:41;;;;;;;54.63;51.00;;;14.20;99.90;;;;;;5093839;28;20389;-68
2022/09/25 03:28:11;;;;;;;52.15;48.65;;;14.20;99.90;;;;;;5092152;28;20388;-68
2022/09/25 03:30:39;;;;;;;51.47;48.08;;;14.20;99.90;;;;;;5092949;28;20630;-67
2022/09/25 03:33:09;;;;;;;53.72;50.10;;;14.10;99.90;;;;;;5092426;28;20382;-67
2022/09/25 03:35:38;;;;;;;50.83;47.23;;;14.10;99.90;;;;;;5092240;28;20916;-67
2022/09/25 03:38:07;;;;;;;52.83;49.23;;;14.10;99.90;;;;;;5092599;28;20481;-68
2022/09/25 03:40:33;;;;;;;59.10;55.08;;;14.10;99.90;;;;;;5092494;28;20385;-68
2022/09/25 03:42:58;;;;;;;59.97;55.88;;;14.10;99.90;;;;;;5091109;28;20408;-69
2022/09/25 03:45:24;;;;;;;59.80;55.78;;;14.10;99.90;;;;;;5093056;28;20413;-69
2022/09/25 03:47:49;;;;;;;57.27;53.40;;;14.10;99.90;;;;;;5091667;28;20386;-69
2022/09/25 03:50:15;;;;;;;57.20;53.20;;;14.10;99.90;;;;;;5092882;28;20754;-69
2022/09/25 03:52:41;;;;;;;56.17;52.28;;;14.10;99.90;;;;;;5093538;28;20418;-69
2022/09/25 03:55:06;;;;;;;56.50;52.43;;;14.10;99.90;;;;;;5092544;28;20859;-69
2022/09/25 03:57:33;;;;;;;55.80;52.03;;;14.10;99.90;;;;;;5094074;28;20405;-69
2022/09/25 04:00:00;;;;;;;60.90;56.73;;;14.10;99.90;;;;;;5092832;28;20390;-69
2022/09/25 04:02:27;;;;;;;63.40;59.05;;;14.10;99.90;;;;;;5089999;28;20390;-69
2022/09/25 04:04:53;;;;;;;60.20;55.80;;;14.10;99.90;;;;;;5091703;28;20455;-69
2022/09/25 04:07:20;;;;;;;63.22;58.72;;;14.10;99.90;;;;;;5092580;28;20712;-68
2022/09/25 04:09:45;;;;;;;58.85;54.47;;;14.10;99.90;;;;;;5090401;28;20398;-68
2022/09/25 04:12:11;;;;;;;61.30;56.90;;;14.10;99.90;;;;;;5091867;28;20384;-68
2022/09/25 04:14:37;;;;;;;61.38;57.00;;;14.10;99.90;;;;;;5090403;28;20466;-69
2022/09/25 04:17:03;;;;;;;61.95;57.65;;;14.10;99.90;;;;;;5090225;28;20394;-68
2022/09/25 04:19:29;;;;;;;60.60;56.28;;;14.00;99.90;;;;;;5091772;28;20602;-69
2022/09/25 04:21:55;;;;;;;62.20;57.70;;;14.00;99.90;;;;;;5091293;28;20371;-69
2022/09/25 04:27:04;;;;;;;61.53;57.17;;;14.00;99.90;;;;;;5092607;28;20885;-70
2022/09/25 04:29:31;;;;;;;57.53;53.60;;;14.00;99.90;;;;;;5091159;28;20386;-69
2022/09/25 04:34:41;;;;;;;62.50;58.40;;;14.00;99.90;;;;;;5088304;28;20571;-69
2022/09/25 04:37:07;;;;;;;59.08;55.00;;;14.00;99.90;;;;;;5088900;28;20464;-67
2022/09/25 04:39:33;;;;;;;60.70;56.53;;;14.10;99.90;;;;;;5089326;28;20420;-68
2022/09/25 04:41:58;;;;;;;61.57;57.37;;;14.10;99.90;;;;;;5089165;28;20463;-68
2022/09/25 04:44:24;;;;;;;61.53;57.27;;;14.10;99.90;;;;;;5089871;28;20374;-69
2022/09/25 04:46:51;;;;;;;59.72;55.63;;;14.10;99.90;;;;;;5091102;28;20458;-68
2022/09/25 04:49:16;;;;;;;57.95;53.92;;;14.10;99.90;;;;;;5090557;28;20386;-69
2022/09/25 04:51:42;;;;;;;58.90;54.80;;;14.10;99.90;;;;;;5091964;28;20386;-69
2022/09/25 04:54:07;;;;;;;58.27;54.27;;;14.00;99.90;;;;;;5090628;28;20401;-67
2022/09/25 04:56:33;;;;;;;57.75;53.83;;;14.10;99.90;;;;;;5090563;28;20398;-67
2022/09/25 04:58:58;;;;;;;61.30;57.10;;;14.00;99.90;;;;;;5089408;28;20451;-67
2022/09/25 05:01:24;;;;;;;56.30;52.47;;;14.10;99.90;;;;;;5089357;28;20590;-67
2022/09/25 05:03:52;;;;;;;58.03;53.95;;;14.10;99.90;;;;;;5089392;28;20713;-66
2022/09/25 05:06:18;;;;;;;56.00;52.08;;;14.10;99.90;;;;;;5087284;28;20478;-67
2022/09/25 05:08:45;;;;;;;55.92;51.97;;;14.10;99.90;;;;;;5088841;28;20397;-67
2022/09/25 05:11:12;;;;;;;55.78;52.03;;;14.10;99.90;;;;;;5086655;28;20472;-67
2022/09/25 05:13:38;;;;;;;59.50;55.53;;;14.00;99.90;;;;;;5084652;28;20696;-67
2022/09/25 05:16:03;;;;;;;56.53;52.70;;;14.00;99.90;;;;;;5083640;28;20417;-67
2022/09/25 05:18:29;;;;;;;57.38;53.38;;;14.00;99.90;;;;;;5083099;28;20423;-67
2022/09/25 05:20:54;;;;;;;56.33;52.53;;;14.00;99.90;;;;;;5083519;28;20374;-67
2022/09/25 05:23:20;;;;;;;51.53;48.00;;;14.00;99.90;;;;;;5083563;28;20552;-67
2022/09/25 05:26:02;;;;;;;56.78;52.80;;;14.00;99.90;;;;;;5084552;28;20483;-67
2022/09/25 05:28:29;;;;;;;55.00;51.17;;;14.00;99.90;;;;;;5088368;28;20374;-68
2022/09/25 05:30:57;;;;;;;53.75;50.30;;;14.00;99.90;;;;;;5090218;28;20421;-68
2022/09/25 05:33:22;;;;;;;57.45;53.47;;;14.00;99.90;;;;;;5090880;28;20382;-68
2022/09/25 05:35:48;;;;;;;53.65;50.05;;;14.00;99.90;;;;;;5089030;28;20434;-68
2022/09/25 05:38:14;;;;;;;50.80;47.40;;;14.00;99.90;;;;;;5088887;28;20386;-68
2022/09/25 05:40:40;;;;;;;52.97;49.58;;;14.00;99.90;;;;;;5088578;28;20460;-69
2022/09/25 05:43:05;;;;;;;52.77;49.20;;;14.10;99.90;;;;;;5089757;28;20428;-68
2022/09/25 05:45:33;;;;;;;52.23;48.63;;;14.10;99.90;;;;;;5089483;28;20505;-68
2022/09/25 05:48:00;;;;;;;51.87;48.33;;;14.00;99.90;;;;;;5089707;28;20389;-68
2022/09/25 05:50:27;;;;;;;53.80;50.10;;;14.10;99.90;;;;;;5090342;28;20382;-68
2022/09/25 05:53:01;;;;;;;49.95;46.65;;;14.10;99.90;;;;;;5089047;28;20416;-68
2022/09/25 05:55:27;;;;;;;51.67;48.25;;;14.10;99.90;;;;;;5087782;28;20382;-68
2022/09/25 05:57:53;;;;;;;53.15;49.65;;;14.10;99.90;;;;;;5087484;28;20450;-69
2022/09/25 06:00:19;;;;;;;51.50;48.00;;;14.10;99.90;;;;;;5086451;28;20397;-68
2022/09/25 06:02:44;;;;;;;53.70;50.13;;;14.10;99.90;;;;;;5084966;28;20538;-67
2022/09/25 06:05:10;;;;;;;52.03;48.63;;;14.10;99.90;;;;;;5085972;28;20811;-67
2022/09/25 06:07:36;;;;;;;49.10;45.70;;;14.10;99.90;;;;;;5089856;28;20445;-67
2022/09/25 06:10:02;;;;;;;55.45;51.80;;;14.10;99.90;;;;;;5090580;28;20719;-67
2022/09/25 06:12:29;;;;;;;54.63;51.00;;;14.10;99.90;;;;;;5092269;28;20378;-69
2022/09/25 06:14:54;;;;;;;56.42;52.53;;;14.10;99.90;;;;;;5092577;28;20869;-69
2022/09/25 06:17:20;;;;;;;50.17;46.77;;;14.10;99.90;;;;;;5090412;28;20401;-69
2022/09/25 06:19:46;;;;;;;53.40;49.87;;;14.10;99.90;;;;;;5091236;28;20382;-69
2022/09/25 06:22:12;;;;;;;54.92;51.35;;;14.10;99.90;;;;;;5090484;28;20693;-68
2022/09/25 06:24:37;;;;;;;52.93;49.33;;;14.10;99.90;;;;;;5087673;28;20386;-68
2022/09/25 06:27:05;;;;;;;52.63;49.13;;;14.10;99.90;;;;;;5087874;28;20393;-69
2022/09/25 06:29:31;;;;;;;52.28;48.78;;;14.10;99.90;;;;;;5089426;28;20394;-68
2022/09/25 06:31:56;;;;;;;51.28;47.78;;;14.10;99.90;;;;;;5090365;28;20458;-69
2022/09/25 06:34:22;;;;;;;50.93;47.50;;;14.10;99.90;;;;;;5087739;28;20393;-68
2022/09/25 06:36:48;;;;;;;49.50;46.10;;;14.10;99.90;;;;;;5086078;28;20448;-69
2022/09/25 06:39:13;;;;;;;49.10;45.72;;;14.10;99.90;;;;;;5088616;28;20733;-69
2022/09/25 06:41:40;;;;;;;55.40;51.70;;;14.10;99.90;;;;;;5090171;28;20390;-69
2022/09/25 06:44:08;;;;;;;56.03;52.42;;;14.10;99.90;;;;;;5088306;28;20409;-69
2022/09/25 06:46:34;;;;;;;51.50;48.10;;;14.10;99.90;;;;;;5085718;28;20398;-69
2022/09/25 06:48:59;;;;;;;51.17;47.83;;;14.10;99.90;;;;;;5087529;28;20716;-67
2022/09/25 06:51:31;;;;;;;52.13;48.63;;;14.10;99.90;;;;;;5086508;28;20758;-68
2022/09/25 06:53:57;;;;;;;54.35;50.65;;;14.10;99.90;;;;;;5087051;28;20378;-67
2022/09/25 06:56:23;;;;;;;53.47;49.97;;;14.10;99.90;;;;;;5085604;28;20836;-67
2022/09/25 06:58:49;;;;;;;52.70;49.10;;;14.10;99.90;;;;;;5086333;28;20793;-67
2022/09/25 07:01:15;;;;;;;55.33;51.43;;;14.10;99.90;;;;;;5089469;28;20508;-67
2022/09/25 07:03:43;;;;;;;53.30;49.63;;;14.10;99.90;;;;;;5087062;28;20856;-68
2022/09/25 07:06:11;;;;;;;53.25;49.60;;;14.10;99.90;;;;;;5087361;28;20389;-67
2022/09/25 07:08:37;;;;;;;55.45;51.65;;;14.10;99.90;;;;;;5086259;28;20490;-68
2022/09/25 07:11:04;;;;;;;51.97;48.38;;;14.10;99.90;;;;;;5084554;28;20887;-68
2022/09/25 07:13:32;;;;;;;54.38;50.67;;;14.20;99.90;;;;;;5086255;28;20420;-69
2022/09/25 07:16:06;;;;;;;56.08;52.05;;;14.10;99.90;;;;;;5086933;28;20492;-68
2022/09/25 07:18:32;;;;;;;54.88;50.97;;;14.10;99.90;;;;;;5084871;28;20411;-68
2022/09/25 07:21:23;;;;;;;50.23;46.90;;;14.20;99.90;;;;;;5084648;28;20595;-69
2022/09/25 07:23:50;;;;;;;55.05;51.15;;;14.20;99.90;;;;;;5086226;28;20386;-68
2022/09/25 07:26:21;;;;;;;57.03;53.13;;;14.20;99.90;;;;;;5084730;28;20397;-68
2022/09/25 07:28:47;;;;;;;55.60;51.65;;;14.20;99.90;;;;;;5084238;28;20517;-68
2022/09/25 07:31:19;;;;;;;53.25;49.55;;;14.20;99.90;;;;;;5084707;28;20408;-69
2022/09/25 07:33:46;;;;;;;54.30;50.53;;;14.20;99.90;;;;;;5083610;28;20386;-68
2022/09/25 07:36:12;;;;;;;56.13;52.33;;;14.10;99.90;;;;;;5085886;28;20485;-68
2022/09/25 07:38:38;;;;;;;57.45;53.22;;;14.20;99.90;;;;;;5084147;28;20370;-68
2022/09/25 07:41:05;;;;;;;53.10;49.63;;;14.20;99.90;;;;;;5082840;28;20394;-68
2022/09/25 07:43:33;;;;;;;56.10;52.40;;;14.10;99.90;;;;;;5081195;28;20428;-68
2022/09/25 07:45:59;;;;;;;53.75;50.20;;;14.10;99.90;;;;;;5079899;28;20394;-68
2022/09/25 07:48:26;;;;;;;56.15;52.28;;;14.20;99.90;;;;;;5080850;28;20382;-66
2022/09/25 07:50:54;;;;;;;54.03;50.53;;;14.20;99.90;;;;;;5077516;28;20715;-68
2022/09/25 07:53:19;;;;;;;54.83;51.25;;;14.10;99.90;;;;;;5075926;28;20381;-68
2022/09/25 07:55:46;;;;;;;55.27;51.57;;;14.20;99.90;;;;;;5077002;28;20390;-70
2022/09/25 07:58:13;;;;;;;54.80;51.30;;;14.20;99.90;;;;;;5058223;28;20478;-68
2022/09/25 08:00:39;;;;;;;49.58;46.35;;;14.10;99.90;;;;;;5057868;28;20516;-68
2022/09/25 08:03:07;;;;;;;53.27;49.67;;;14.20;99.90;;;;;;5056907;28;20760;-68
2022/09/25 08:05:32;;;;;;;54.83;51.20;;;14.20;99.90;;;;;;5057334;28;20396;-68
2022/09/25 08:07:58;;;;;;;52.05;48.55;;;14.10;99.90;;;;;;5060815;28;20620;-68
2022/09/25 08:10:23;;;;;;;48.53;45.43;;;14.10;99.90;;;;;;5063316;28;20660;-68
2022/09/25 08:12:49;;;;;;;53.67;50.13;;;14.10;99.90;;;;;;5060986;28;20818;-68
2022/09/25 08:15:15;;;;;;;48.65;45.40;;;14.10;99.90;;;;;;5061181;28;20395;-68
2022/09/25 08:17:41;;;;;;;45.63;42.83;;;14.10;99.90;;;;;;5065343;28;20404;-68
2022/09/25 08:20:07;;;;;;;44.90;42.28;;;14.10;99.90;;;;;;5064830;28;20392;-68
2022/09/25 08:22:33;;;;;;;43.15;40.67;;;14.10;99.90;;;;;;5065329;28;20464;-68
2022/09/25 08:25:02;;;;;;;43.78;41.38;;;14.00;99.90;;;;;;5064912;28;20862;-68
2022/09/25 08:27:28;;;;;;;40.47;38.28;;;14.00;99.90;;;;;;5067388;28;20462;-68
2022/09/25 08:29:54;;;;;;;41.42;39.22;;;14.00;99.90;;;;;;5067615;28;20477;-69
2022/09/25 08:32:19;;;;;;;42.87;40.57;;;14.00;99.90;;;;;;5065468;28;20395;-68
2022/09/25 08:34:45;;;;;;;40.07;37.97;;;14.00;99.90;;;;;;5065641;28;20803;-69
2022/09/25 08:37:10;;;;;;;35.53;33.63;;;14.00;99.90;;;;;;5064521;28;20425;-68
2022/09/25 08:39:36;;;;;;;43.27;40.87;;;13.90;99.90;;;;;;5065960;28;20458;-68
2022/09/25 08:42:03;;;;;;;43.30;40.90;;;13.90;99.90;;;;;;5067513;28;20806;-68
2022/09/25 08:44:34;;;;;;;45.53;43.03;;;13.90;99.90;;;;;;5063947;28;20723;-68
2022/09/25 08:50:17;;;;;;;43.30;40.90;;;13.80;99.90;;;;;;5066395;28;20620;-68
2022/09/25 08:52:48;;;;;;;43.38;41.05;;;13.80;99.90;;;;;;5065809;28;20807;-70
2022/09/25 08:58:28;;;;;;;42.28;39.88;;;13.90;99.90;;;;;;5067478;28;20663;-69
2022/09/25 09:00:58;;;;;;;43.17;40.78;;;13.80;99.90;;;;;;5066614;28;20747;-68
2022/09/25 09:03:29;;;;;;;42.88;40.53;;;13.80;99.90;;;;;;5062159;28;20433;-68
2022/09/25 09:06:03;;;;;;;44.75;42.28;;;13.80;99.90;;;;;;5059921;28;20398;-69
2022/09/25 09:08:32;;;;;;;44.07;41.67;;;13.90;99.90;;;;;;5058646;28;20407;-69
2022/09/25 09:11:16;;;;;;;45.55;43.03;;;14.00;99.90;;;;;;5060384;28;20400;-68
2022/09/25 09:13:48;;;;;;;44.58;42.10;;;14.00;99.90;;;;;;5058273;28;20386;-68
2022/09/25 09:16:49;;;;;;;41.15;38.75;;;14.00;99.90;;;;;;5059570;28;20649;-69
2022/09/25 09:19:15;;;;;;;43.47;41.03;;;14.00;99.90;;;;;;5030201;28;20623;-68
2022/09/25 09:21:50;;;;;;;47.60;44.93;;;14.00;99.90;;;;;;5061991;28;20708;-68
2022/09/25 09:24:30;;;;;;;42.43;40.07;;;14.00;99.90;;;;;;5061840;28;20641;-68
2022/09/25 09:27:29;;;;;;;41.90;39.60;;;14.00;99.90;;;;;;5060901;28;20387;-68
2022/09/25 09:30:17;;;;;;;38.30;36.22;;;13.80;99.90;;;;;;5059320;28;20927;-68
2022/09/25 09:33:10;;;;;;;41.13;38.92;;;13.70;99.90;;;;;;5060958;28;20582;-68
2022/09/25 09:36:04;;;;;;;41.92;39.72;;;13.70;99.90;;;;;;5062452;28;20486;-68
2022/09/25 09:38:58;;;;;;;34.92;33.03;;;13.80;99.90;;;;;;5064878;28;20397;-69
2022/09/25 09:41:32;;;;;;;39.40;37.22;;;13.70;99.90;;;;;;5067592;28;20788;-68
2022/09/25 09:44:18;;;;;;;40.63;38.38;;;13.80;99.90;;;;;;5070298;28;20699;-69
2022/09/25 09:46:49;;;;;;;36.03;33.90;;;13.80;99.90;;;;;;5071371;28;20884;-68
2022/09/25 09:49:19;;;;;;;39.17;36.95;;;13.80;99.90;;;;;;5070361;28;20388;-68
2022/09/25 09:51:54;;;;;;;36.00;33.97;;;13.80;99.90;;;;;;5070249;28;20431;-68
2022/09/25 09:54:27;;;;;;;41.33;39.00;;;13.80;99.90;;;;;;5070027;28;20415;-68
2022/09/25 09:56:55;;;;;;;37.72;35.58;;;13.80;99.90;;;;;;5068445;28;20403;-68
2022/09/25 09:59:30;;;;;;;42.08;39.70;;;13.80;99.90;;;;;;5068664;28;20870;-68
2022/09/25 10:02:07;;;;;;;39.22;37.13;;;13.80;99.90;;;;;;5062499;28;20464;-69
2022/09/25 10:04:37;;;;;;;38.70;36.50;;;13.80;99.90;;;;;;5059604;28;20395;-69
2022/09/25 10:07:08;;;;;;;39.42;37.08;;;13.70;99.90;;;;;;5060300;28;20407;-69
2022/09/25 10:09:36;;;;;;;41.42;39.03;;;13.70;99.90;;;;;;5060469;28;20883;-68
2022/09/25 10:12:13;;;;;;;44.92;42.28;;;13.70;99.90;;;;;;5061386;28;20939;-68
2022/09/25 10:14:44;;;;;;;40.53;38.05;;;13.70;99.90;;;;;;5064206;28;20574;-69
2022/09/25 10:17:10;;;;;;;42.00;39.50;;;13.70;99.90;;;;;;5062860;28;20527;-68
2022/09/25 10:20:03;;;;;;;41.28;38.88;;;13.70;99.90;;;;;;5061586;28;20385;-69
2022/09/25 10:22:37;;;;;;;40.50;38.00;;;13.70;99.90;;;;;;5063502;28;20759;-68
2022/09/25 10:25:04;;;;;;;42.97;40.22;;;13.70;99.90;;;;;;5062660;28;20744;-68
2022/09/25 10:27:31;;;;;;;41.00;38.50;;;13.70;99.90;;;;;;5064505;28;20769;-68
2022/09/25 10:30:14;;;;;;;40.33;37.95;;;13.70;99.90;;;;;;5063304;28;20693;-68
2022/09/25 10:33:09;;;;;;;41.10;38.57;;;13.70;99.90;;;;;;5062581;28;20528;-69
2022/09/25 10:35:37;;;;;;;35.53;33.20;;;13.70;99.90;;;;;;5063283;28;20590;-69
2022/09/25 10:38:04;;;;;;;38.55;36.20;;;13.60;99.90;;;;;;5062337;28;20529;-69
2022/09/25 10:40:34;;;;;;;38.33;35.80;;;13.60;99.90;;;;;;5058697;28;20663;-71
2022/09/25 10:43:16;;;;;;;33.55;31.30;;;13.70;99.90;;;;;;5057913;28;20942;-55
2022/09/25 10:45:43;;;;;;;36.17;33.72;;;13.60;99.90;;;;;;5063449;28;20629;-60
2022/09/25 10:51:20;;;;;;;36.70;34.22;;;13.50;99.90;;;;;;5064234;28;21046;-59
2022/09/25 10:54:08;;;;;;;38.53;36.15;;;13.60;99.90;;;;;;5068251;28;20536;-56
2022/09/25 10:56:35;;;;;;;33.83;31.63;;;13.60;99.90;;;;;;5057597;28;20499;-59
2022/09/25 10:59:02;;;;;;;35.55;33.25;;;13.60;99.90;;;;;;5067331;28;20391;-58
2022/09/25 11:01:38;;;;;;;36.03;33.72;;;13.60;99.90;;;;;;5066284;28;20396;-59
2022/09/25 11:04:23;;;;;;;33.78;31.45;;;13.60;99.90;;;;;;5066399;28;20395;-58
2022/09/25 11:06:52;;;;;;;36.25;34.05;;;13.60;99.90;;;;;;5064627;28;20411;-68
2022/09/25 11:09:21;;;;;;;39.25;36.95;;;13.70;99.90;;;;;;5055175;28;20574;-69
2022/09/25 11:11:48;;;;;;;34.55;32.35;;;13.70;99.90;;;;;;5054373;28;20392;-68
2022/09/25 11:14:31;;;;;;;38.00;35.58;;;13.70;99.90;;;;;;5054692;28;20423;-68
2022/09/25 11:16:58;;;;;;;35.60;33.10;;;13.70;99.90;;;;;;5053635;28;20404;-68
2022/09/25 11:19:27;;;;;;;37.75;35.33;;;13.60;99.90;;;;;;5053261;28;20401;-68
2022/09/25 11:22:18;;;;;;;35.60;33.22;;;13.60;99.90;;;;;;5056130;28;20793;-69
2022/09/25 11:25:13;;;;;;;36.85;34.70;;;13.60;99.90;;;;;;5053052;28;20468;-68
2022/09/25 11:28:04;;;;;;;36.05;33.70;;;13.70;99.90;;;;;;5055884;28;20390;-68
2022/09/25 11:30:41;;;;;;;37.60;35.20;;;13.70;99.90;;;;;;5052825;28;20602;-69
2022/09/25 11:33:16;;;;;;;37.50;35.22;;;13.70;99.90;;;;;;5055054;28;20380;-69
2022/09/25 11:36:16;;;;;;;41.08;38.40;;;13.70;99.90;;;;;;5054508;28;20399;-70
2022/09/25 11:41:44;;;;;;;44.17;41.30;;;13.60;99.90;;;;;;5057424;28;20374;-69
2022/09/25 11:44:30;;;;;;;40.80;38.05;;;13.60;99.90;;;;;;5055024;28;20402;-69
2022/09/25 11:47:30;;;;;;;39.38;36.78;;;13.60;99.90;;;;;;5056263;28;20482;-69
2022/09/25 11:49:57;;;;;;;34.63;32.33;;;13.60;99.90;;;;;;5035621;28;20647;-68
2022/09/25 11:52:47;;;;;;;33.28;31.10;;;13.60;99.90;;;;;;5060298;28;20379;-69
2022/09/25 11:55:35;;;;;;;38.25;35.95;;;13.60;99.90;;;;;;5061527;28;20373;-69
2022/09/25 11:58:16;;;;;;;33.75;31.58;;;13.60;99.90;;;;;;5058695;28;20656;-69
2022/09/25 12:01:10;;;;;;;30.88;28.77;;;13.50;99.90;;;;;;5058986;28;20384;-69
2022/09/25 12:04:12;;;;;;;35.65;33.33;;;13.40;99.90;;;;;;5057856;28;20583;-70
2022/09/25 12:07:01;;;;;;;31.08;29.00;;;13.40;99.90;;;;;;5058724;28;20930;-69
2022/09/25 12:09:55;;;;;;;35.13;32.73;;;13.30;99.90;;;;;;5050047;28;20457;-69
2022/09/25 12:12:36;;;;;;;33.60;31.25;;;13.30;99.90;;;;;;5060813;28;20639;-69
2022/09/25 12:15:25;;;;;;;30.70;28.80;;;13.40;99.90;;;;;;5060488;28;20388;-70
2022/09/25 12:18:26;;;;;;;32.47;30.27;;;13.30;99.90;;;;;;5061490;28;20506;-69
2022/09/25 12:21:09;;;;;;;28.97;26.97;;;13.40;99.90;;;;;;5060342;28;20880;-69
2022/09/25 12:23:56;;;;;;;28.77;26.90;;;13.40;99.90;;;;;;5058710;28;20914;-69
2022/09/25 12:26:41;;;;;;;33.40;31.30;;;13.60;99.90;;;;;;5062714;28;20384;-69
2022/09/25 12:29:32;;;;;;;32.03;30.08;;;13.60;99.90;;;;;;5062909;28;20661;-69
2022/09/25 12:32:27;;;;;;;30.92;28.92;;;13.60;99.90;;;;;;5063251;28;20419;-70
2022/09/25 12:35:20;;;;;;;32.63;30.55;;;13.60;99.90;;;;;;5063774;28;20645;-69
2022/09/25 12:37:56;;;;;;;30.17;28.25;;;13.60;99.90;;;;;;5059880;28;20818;-69
2022/09/25 12:40:39;;;;;;;34.20;32.03;;;13.60;99.90;;;;;;5058832;28;20702;-69
2022/09/25 12:43:14;;;;;;;31.33;29.33;;;13.60;99.90;;;;;;5056690;28;20380;-69
2022/09/25 12:45:51;;;;;;;34.50;32.50;;;13.60;99.90;;;;;;5054380;28;20939;-68
2022/09/25 12:48:36;;;;;;;35.22;32.95;;;13.70;99.90;;;;;;5055893;28;20680;-69
2022/09/25 12:51:10;;;;;;;34.25;32.25;;;13.70;99.90;;;;;;5057492;28;20388;-69
2022/09/25 12:53:56;;;;;;;34.92;32.92;;;13.70;99.90;;;;;;5056692;28;20426;-69
2022/09/25 12:56:40;;;;;;;37.70;35.60;;;13.80;99.90;;;;;;5056519;28;20436;-69
2022/09/25 12:59:25;;;;;;;39.05;36.65;;;13.80;99.90;;;;;;5060093;28;20441;-69
2022/09/25 13:02:12;;;;;;;38.53;36.33;;;13.80;99.90;;;;;;5057346;28;20440;-69
2022/09/25 13:05:16;;;;;;;40.00;37.63;;;14.00;99.90;;;;;;5056883;28;20694;-69
2022/09/25 13:07:48;;;;;;;39.38;37.08;;;14.10;99.90;;;;;;5056179;28;20427;-68
2022/09/25 13:10:40;;;;;;;40.22;37.83;;;14.20;99.90;;;;;;5052588;28;21516;-69
2022/09/25 13:13:14;;;;;;;42.67;40.05;;;14.20;99.90;;;;;;5055239;28;20549;-69
2022/09/25 13:15:41;;;;;;;33.15;31.05;;;14.10;99.90;;;;;;5054998;28;20510;-69
2022/09/25 13:18:21;;;;;;;36.50;34.42;;;14.00;99.90;;;;;;5055009;28;20500;-69
2022/09/25 13:20:50;;;;;;;38.73;36.43;;;13.90;99.90;;;;;;5053887;28;20453;-69
2022/09/25 13:23:29;;;;;;;34.30;32.17;;;13.90;99.90;;;;;;5056509;28;20383;-69